Weather observations for the past three days for
Andrews-Murphy Airport
Imperial (Metric)
Date Time (edt) Wind (mph) Vis. (mi.) Weather Sky Cond. Temperature (ºF) Relative Humidity Wind Chill (°F) Heat Index (°F) Pressure Precipitation (in)
Air Dwpt 6 hour altimeter (in) sea level (mb) 1 hr 3 hr 6 hr
Max. Min.
04 20:55 Calm 10.00 Fair CLR 59 45.3 61% 29.98 0.0
04 20:35 Calm 10.00 Fair CLR 62.2 45 53% 29.97 0.0
04 20:15 W 3 10.00 Fair CLR 65.8 44.8 47% 29.97 0.0
04 19:55 W 5 10.00 Fair CLR 69.1 42.6 77.4 69.1 38% 29.96 0.0
04 19:35 W 5 10.00 Fair CLR 71.4 42.4 35% 29.96 0.0
04 19:15 SW 7 10.00 Fair CLR 71.8 40.3 32% 29.96 0.0
04 18:55 W 9 10.00 Fair CLR 73 41.7 32% 29.95 0.0
04 18:35 SW 12 G 17 10.00 Fair CLR 73.9 43.3 33% 29.96 0.0
04 18:15 SW 7 10.00 Fair CLR 75 42.3 31% 77 29.95 0.0
04 17:55 W 12 10.00 Fair CLR 76.3 42.6 30% 77 29.95 0.0
04 17:35 W 12 10.00 Fair CLR 76.5 41.2 28% 77 29.95 0.0
04 17:15 W 8 10.00 Fair CLR 76.3 40.3 27% 77 29.95 0.0
04 16:55 W 10 10.00 Fair CLR 76.5 39.2 26% 77 29.96 0.0
04 16:35 W 8 10.00 Fair CLR 76.3 40.5 28% 77 29.96 0.0
04 16:15 SW 5 10.00 Fair CLR 76.3 40.8 28% 77 29.97 0.0
04 15:55 W 13 G 18 10.00 Fair CLR 76.5 41.4 28% 77 29.97 0.0
04 15:35 SW 8 G 17 10.00 Fair CLR 75.7 39.6 27% 77 29.98 0.0
04 15:15 W 8 10.00 Fair CLR 75.2 39.7 28% 77 29.99 0.0
04 14:55 W 10 10.00 Fair CLR 75.6 40.3 28% 77 30 0.0
04 14:35 W 10 10.00 Fair CLR 74.5 40.3 29% 30.01 0.0
04 13:55 W 10 10.00 Fair CLR 72.7 43.7 73.2 40.5 35% 30.01 0.0
04 13:35 SW 8 10.00 Fair CLR 72.5 43.5 35% 30.02 0.0
04 13:15 W 9 10.00 Fair CLR 70.3 42.8 37% 30.03 0.0
04 12:35 W 6 10.00 Fair CLR 68.2 42.1 39% 30.05 0.0
04 12:15 NW 6 10.00 Fair CLR 67.3 42.1 40% 30.06 0.0
04 11:55 W 5 10.00 Fair CLR 65.5 41 41% 30.07 0.0
04 11:35 NW 5 10.00 Fair CLR 65.7 39.6 38% 30.08 0.0
04 11:15 Calm 10.00 Fair CLR 63.9 39.7 41% 30.09 0.0
04 10:55 Calm 10.00 Fair CLR 61.7 38.5 42% 30.09 0.0
04 10:35 Calm 10.00 Fair CLR 59.7 38.3 45% 30.1 0.0
04 10:15 Calm 10.00 Fair CLR 57.6 39.4 51% 30.11 0.0
04 09:55 Calm 10.00 Fair CLR 55 41.7 61% 30.11 0.0
04 09:35 Calm 10.00 Fair CLR 51.1 42.3 72% 30.12 0.0
04 09:15 Calm 10.00 Fair CLR 47.7 41.9 81% 30.12 0.0
04 08:55 Calm 10.00 Fair CLR 45.1 41 86% 30.12 0.0
04 08:35 Calm 10.00 Fair CLR 42.4 39.2 88% 30.12 0.0
04 08:15 Calm 10.00 Fair CLR 41.2 38.8 91% 30.1 0.0
04 07:55 Calm 10.00 Fair CLR 40.5 38.5 40.5 34.5 93% 30.1 0.0
04 07:35 Calm 10.00 Fair CLR 37.9 36.1 93% 30.1 0.0
04 07:15 Calm 10.00 Fair CLR 36.1 34.5 94% 30.1 0.0
04 06:55 Calm 10.00 Fair CLR 35.1 33.3 93% 30.1 0.0
04 06:35 Calm 10.00 Fair CLR 35.6 33.6 93% 30.09 0.0
04 06:15 Calm 10.00 Fair CLR 36 34 93% 30.09 0.0
04 05:55 Calm 10.00 Fair CLR 35.8 33.8 93% 30.09 0.0
04 05:35 Calm 10.00 Fair CLR 36 33.8 92% 30.1 0.0
04 05:15 Calm 10.00 Fair CLR 36.5 34.7 93% 30.1 0.0
04 04:55 Calm 10.00 Fair CLR 36.5 34.3 92% 30.1 0.0
04 04:35 Calm 10.00 Fair CLR 36.7 34.2 91% 30.1 0.0
04 04:15 Calm 10.00 Fair CLR 36.3 33.8 91% 30.09 0.0
04 03:55 Calm 10.00 Fair CLR 36.5 34 91% 30.09 0.0
04 03:35 Calm 10.00 Fair CLR 37.6 35.1 91% 30.1 0.0
04 03:15 Calm 10.00 Fair CLR 37.6 34.9 90% 30.1 0.0
04 02:55 Calm 10.00 Fair CLR 37.4 34.3 89% 30.1 0.0
04 02:35 Calm 10.00 Fair CLR 37.6 34.7 89% 30.1 0.0
04 02:15 Calm 10.00 Fair CLR 38.5 35.4 89% 30.1 0.0
04 01:55 Calm 10.00 Fair CLR 38.3 34.7 58.6 38.3 87% 30.11 0.0
04 01:35 Calm 10.00 Fair CLR 39 35.1 86% 30.11 0.0
04 01:15 Calm 10.00 Fair CLR 39.4 35.2 85% 30.12 0.0
04 00:35 Calm 10.00 Fair CLR 40.6 35.6 82% 30.11 0.0
04 00:15 Calm 10.00 Fair CLR 41.5 36 81% 30.1 0.0
03 23:55 Calm 10.00 Fair CLR 42.1 35.6 78% 30.1 0.0
03 23:35 Calm 10.00 Fair CLR 42.4 36 78% 30.09 0.0
03 23:15 Calm 10.00 Fair CLR 43.7 36.1 75% 30.09 0.0
03 22:55 Calm 10.00 Fair CLR 44.4 36.5 74% 30.09 0.0
03 22:35 Calm 10.00 Fair CLR 44.4 36.1 73% 30.09 0.0
03 22:15 Calm 10.00 Fair CLR 45.9 36.7 70% 30.09 0.0
03 21:55 Calm 10.00 Fair CLR 47.7 36.1 64% 30.08 0.0
03 21:35 Calm 10.00 Fair CLR 48.2 36.1 63% 30.07 0.0
03 21:15 N 3 10.00 Fair CLR 50.5 36 58% 30.07 0.0
03 20:55 Calm 10.00 Fair CLR 51.8 36.3 56% 30.06 0.0
03 20:35 NW 5 10.00 Fair CLR 53.6 36 51% 30.05 0.0
03 20:15 Calm 10.00 Fair CLR 56.1 35.8 47% 30.05 0.0
03 19:55 W 3 10.00 Fair CLR 59.5 34 67.5 59.5 38% 30.04 0.0
03 19:35 SW 7 10.00 Fair CLR 62.2 32.2 32% 30.04 0.0
03 19:15 SW 10 10.00 Fair CLR 63.7 31.8 30% 30.04 0.0
03 18:55 SW 12 10.00 Fair CLR 64.6 30.9 28% 30.04 0.0
03 18:35 SW 12 10.00 Fair CLR 65.8 31.8 28% 30.04 0.0
03 18:15 SW 12 G 16 10.00 Fair CLR 66.2 31.6 28% 30.04 0.0
03 17:55 SW 14 10.00 Fair CLR 66.4 31.5 27% 30.04 0.0
03 17:35 SW 12 G 16 10.00 Fair CLR 66.6 30.7 26% 30.04 0.0
03 17:15 SW 10 10.00 Fair CLR 67.3 29.5 24% 30.05 0.0
03 16:55 SW 9 10.00 Fair CLR 66.7 27.3 23% 30.06 0.0
03 16:35 SW 10 10.00 Fair CLR 67.5 29.1 24% 30.06 0.0
03 16:15 W 9 G 17 10.00 Fair CLR 67.1 28.9 24% 30.07 0.0
03 15:55 SW 12 10.00 Fair CLR 67.1 30.7 26% 30.08 0.0
03 15:35 W 8 G 16 10.00 Fair CLR 66.4 31.5 27% 30.08 0.0
03 15:15 SW 8 10.00 Fair CLR 65.7 31.8 28% 30.09 0.0
03 14:55 W 8 10.00 Fair CLR 66.2 33.3 29% 30.1 0.0
03 14:35 W 6 10.00 Fair CLR 63.7 32.4 31% 30.1 0.0
03 14:15 S 6 10.00 Fair CLR 63.7 34.5 34% 30.11 0.0
03 13:55 NW 7 10.00 Partly Cloudy SCT060 62.4 35.2 63 38.3 36% 30.11 0.0
03 13:35 W 7 G 16 10.00 Fair CLR 63 35.8 36% 30.12 0.0
03 13:15 W 7 10.00 Fair CLR 61.2 34.5 37% 30.13 0.0
03 12:55 NE 3 10.00 Fair CLR 59.9 33.3 37% 30.13 0.0
03 12:35 W 6 10.00 Fair CLR 59.2 33.6 38% 30.14 0.0
03 12:15 SW 3 10.00 Fair CLR 57.7 32.7 39% 30.15 0.0
03 11:55 S 5 10.00 Fair CLR 57.9 32.4 38% 30.15 0.0
03 11:35 Calm 10.00 Fair CLR 57 33.1 41% 30.16 0.0
03 11:15 S 6 10.00 Fair CLR 56.7 33.3 41% 30.16 0.0
03 10:55 S 5 10.00 Fair CLR 54.9 33.3 44% 30.16 0.0
03 10:35 S 3 10.00 Fair CLR 54 33.1 45% 30.16 0.0
03 10:15 E 3 10.00 Fair CLR 53.1 34.2 49% 30.16 0.0
03 09:55 SE 5 10.00 Fair CLR 52 34 50% 30.16 0.0
03 09:35 Calm 10.00 Fair CLR 49.1 38.5 67% 30.16 0.0
03 09:15 Calm 10.00 Fair CLR 45.7 39.6 79% 30.17 0.0
03 08:55 Calm 10.00 Fair CLR 43.2 38.8 85% 30.17 0.0
03 08:35 Calm 10.00 Fair CLR 41.4 38.3 89% 30.17 0.0
03 08:15 Calm 10.00 Fair CLR 39.7 37 90% 30.17 0.0
03 07:55 Calm 10.00 Fair CLR 37.9 36 41 33.6 93% 30.17 0.0
03 07:35 Calm 10.00 Fair CLR 36 34 93% 30.16 0.0
03 07:15 Calm 10.00 Fair CLR 34.7 32.9 93% 30.14 0.0
03 06:55 Calm 10.00 Fair CLR 34.3 32.2 92% 30.13 0.0
03 06:35 Calm 10.00 Fair CLR 35.1 33.1 93% 30.13 0.0
03 06:15 Calm 10.00 Fair CLR 34 31.8 92% 30.13 0.0
03 05:55 Calm 10.00 Fair CLR 35.2 32.9 91% 30.12 0.0
03 05:35 Calm 10.00 Fair CLR 35.2 32.5 90% 30.11 0.0
03 05:15 Calm 10.00 Fair CLR 36 33.3 90% 30.1 0.0
03 04:55 Calm 10.00 Fair CLR 36.3 33.4 89% 30.1 0.0
03 04:35 Calm 10.00 Fair CLR 36.3 33.3 89% 30.1 0.0
03 04:15 Calm 10.00 Fair CLR 36.7 33.3 87% 30.09 0.0
03 03:55 Calm 10.00 Fair CLR 36.9 33.6 88% 30.09 0.0
03 03:35 Calm 10.00 Fair CLR 37.8 34.3 88% 30.09 0.0
03 03:15 Calm 10.00 Fair CLR 38.5 34.9 87% 30.08 0.0
03 02:55 Calm 10.00 Fair CLR 38.5 34.3 85% 30.07 0.0
03 02:35 Calm 10.00 Fair CLR 39 34.2 83% 30.07 0.0
03 02:15 Calm 10.00 Fair CLR 40.1 36.1 86% 30.07 0.0
03 01:55 Calm 10.00 Fair CLR 40.3 35.2 54.5 40.3 82% 30.07 0.0
03 01:35 Calm 10.00 Fair CLR 41 35.2 80% 30.07 0.0
03 01:15 Calm 10.00 Fair CLR 42.1 35.8 78% 30.07 0.0
03 00:55 Calm 10.00 Partly Cloudy SCT070 SCT080 43.9 37.2 77% 30.07 0.0
03 00:35 Calm 10.00 Overcast BKN065 OVC080 44.8 38.3 78% 30.07 0.0
03 00:15 Calm 10.00 Overcast BKN065 OVC085 44.8 37.6 76% 30.07 0.0
02 23:55 Calm 10.00 Overcast BKN065 OVC080 44.8 38.3 78% 30.07 0.0
02 23:35 Calm 10.00 Overcast SCT070 OVC085 44.6 37.4 76% 30.06 0.0
02 23:15 Calm 10.00 Overcast BKN075 OVC090 44.4 37 75% 30.05 0.0
02 22:55 Calm 10.00 Mostly Cloudy SCT080 BKN085 BKN110 43.3 36 75% 30.05 0.0
02 22:35 Calm 10.00 Partly Cloudy SCT090 42.8 34.7 73% 30.04 0.0
02 22:15 Calm 10.00 Fair CLR 44.6 34.7 68% 30.04 0.0
02 21:55 Calm 10.00 Fair CLR 44.1 34.7 70% 30.03 0.0
02 21:35 Calm 10.00 Fair CLR 47.1 33.8 60% 30.03 0.0
02 21:15 NW 5 10.00 Fair CLR 47.7 33.8 59% 46 30.02 0.0
02 20:55 NW 3 10.00 Fair CLR 47.7 34.3 60% 30.01 0.0
02 20:35 Calm 10.00 Fair CLR 49.8 33.6 54% 30 0.0
02 20:15 N 5 10.00 Partly Cloudy SCT080 53.6 30.7 42% 29.99 0.0
02 19:55 NE 7 10.00 Partly Cloudy SCT080 54.9 30.9 63.7 54.9 40% 29.98 0.0
02 19:35 N 3 10.00 Partly Cloudy SCT085 SCT090 57.2 29.3 35% 29.97 0.0
02 19:15 NE 8 10.00 Mostly Cloudy BKN085 56.8 28.8 34% 29.97 0.0
02 18:55 N 9 10.00 Partly Cloudy SCT085 57.7 27.5 31% 29.97 0.0
02 18:35 NW 3 10.00 Partly Cloudy SCT090 59.5 26.6 28% 29.97 0.0
02 18:15 N 6 10.00 Fair CLR 59 25.2 27% 29.97 0.0
02 17:55 N 9 G 18 10.00 Partly Cloudy SCT080 58.8 24.6 27% 29.96 0.0
02 17:35 N 13 G 22 10.00 Fair CLR 61.3 26.2 26% 29.95 0.0
02 17:15 N 14 G 18 10.00 Fair CLR 61.7 26.2 26% 29.94 0.0
02 16:55 N 8 G 21 10.00 Fair CLR 62.1 27.5 27% 29.94 0.0
02 16:35 N 10 G 16 10.00 Fair CLR 62.6 25.5 24% 29.93 0.0
02 16:15 N 14 G 22 10.00 Fair CLR 62.6 28.4 27% 29.93 0.0
02 15:55 N 12 G 21 10.00 Fair CLR 62.8 28 27% 29.93 0.0
02 15:35 NW 14 G 21 10.00 Fair CLR 63.3 27.3 26% 29.93 0.0
02 15:15 N 15 G 23 10.00 Fair CLR 63 28 27% 29.92 0.0
02 14:55 N 12 G 16 10.00 Partly Cloudy SCT075 63.5 29.1 27% 29.92 0.0
02 14:35 N 8 10.00 Mostly Cloudy BKN075 62.1 30.4 30% 29.93 0.0
02 14:15 N 8 G 18 10.00 Mostly Cloudy BKN075 61.9 30.4 31% 29.93 0.0
02 13:55 NE 12 G 17 10.00 Partly Cloudy SCT055 SCT075 61.9 32.5 62.6 50.9 33% 29.93 0.0
02 13:35 NE 8 10.00 Mostly Cloudy BKN055 62.4 34.7 36% 29.93 0.0
02 13:15 NE 7 G 16 10.00 Mostly Cloudy BKN060 BKN070 61.9 35.6 38% 29.94 0.0
02 12:55 N 9 G 16 10.00 Mostly Cloudy BKN070 62.2 36.9 39% 29.94 0.0
02 12:35 NW 13 10.00 Overcast BKN060 OVC070 59.4 35.8 41% 29.95 0.0
02 12:15 N 9 10.00 Overcast BKN060 OVC070 59.4 37.4 44% 29.96 0.0
02 11:55 NE 7 10.00 Mostly Cloudy SCT047 BKN070 60.3 39 46% 29.95 0.0
02 11:35 NE 3 10.00 Partly Cloudy SCT047 61 39.6 45% 29.95 0.0
02 11:15 E 5 10.00 Fair CLR 59.7 39.6 47% 29.95 0.0
02 10:55 N 7 10.00 Partly Cloudy SCT041 59.4 41.4 52% 29.95 0.0
02 10:35 SE 5 10.00 Partly Cloudy SCT039 58.5 40.1 51% 29.95 0.0
02 10:15 Calm 10.00 Fair CLR 57.6 40.1 52% 29.95 0.0
02 09:55 N 5 10.00 Partly Cloudy SCT060 56.1 39.6 54% 29.95 0.0
02 09:35 N 7 10.00 Fair CLR 54.7 39.7 57% 29.95 0.0
02 09:15 E 3 10.00 Fair CLR 54.5 40.5 59% 29.94 0.0
02 08:55 Calm 10.00 Fair CLR 53.1 39.2 60% 29.95 0.0
02 08:35 Calm 10.00 Fair CLR 52.2 38.7 60% 29.95 0.0
02 08:15 Calm 10.00 Partly Cloudy SCT120 51.8 40.3 65% 29.95 0.0
02 07:55 Calm 10.00 Mostly Cloudy BKN120 50.7 40.1 54.5 48.9 67% 29.95 0.0
02 07:35 Calm 10.00 Partly Cloudy SCT120 50.4 40.6 69% 29.94 0.0
02 07:15 Calm 10.00 Fair CLR 49.1 41 74% 29.93 0.0
02 06:55 Calm 10.00 Fair CLR 49.1 41 74% 29.94 0.0
02 06:35 E 3 10.00 Fair CLR 50.2 39.6 67% 29.93 0.0
02 06:15 Calm 10.00 Fair CLR 50 40.1 69% 29.94 0.0
02 05:55 Calm 10.00 Partly Cloudy SCT120 50.5 39 65% 29.93 0.0
02 05:35 NE 6 10.00 Fair CLR 51.6 38.1 60% 29.93 0.0
02 05:15 NE 8 10.00 Fair CLR 51.8 38.3 60% 29.93 0.0
02 04:55 NE 7 10.00 Fair CLR 52.3 38.1 59% 29.93 0.0
02 04:35 NE 7 10.00 Fair CLR 51.3 40.1 66% 29.93 0.0
02 04:15 Calm 10.00 Fair CLR 51.6 40.1 65% 29.94 0.0
02 03:55 Calm 10.00 Fair CLR 52.2 39.7 63% 29.94 0.0
02 03:35 Calm 10.00 Fair CLR 51.8 42.1 70% 29.95 0.0
02 03:15 Calm 10.00 Fair CLR 52 42.1 69% 29.94 0.0
02 02:55 NE 3 10.00 Fair CLR 53.4 40.5 62% 29.94 0.0
02 02:35 N 6 10.00 Fair CLR 54.1 39.7 58% 29.95 0.0
02 02:15 Calm 10.00 Fair CLR 54 41.9 64% 29.95 0.0
02 01:55 Calm 10.00 Fair CLR 54.5 42.1 59.9 51.8 63% 29.95 0.0
02 01:35 Calm 10.00 Fair CLR 53.1 43.9 71% 29.95 0.0
02 01:15 E 5 10.00 Fair CLR 53.2 43.9 71% 29.95 0.0
02 00:55 N 5 10.00 Fair CLR 52 45.1 78% 29.96 0.0
02 00:35 Calm 10.00 Fair CLR 51.8 45.5 79% 29.96 0.0
02 00:15 Calm 10.00 Fair CLR 51.8 44.8 77% 29.96 0.0
01 23:55 Calm 10.00 Fair CLR 52 44.4 76% 29.96 0.0
01 23:35 Calm 10.00 Fair CLR 52 44.1 75% 29.96 0.0
01 23:15 Calm 10.00 Fair CLR 52.5 44.2 74% 29.97 0.0
01 22:55 Calm 10.00 Fair CLR 52.7 43.9 72% 29.97 0.0
01 22:35 Calm 10.00 Fair CLR 53.1 44.1 72% 29.97 0.0
01 22:15 Calm 10.00 Fair CLR 53.8 43.5 68% 29.97 0.0
01 21:55 Calm 10.00 Fair CLR 54.5 43.2 66% 29.97 0.0
01 21:35 Calm 10.00 Fair CLR 54.5 43.9 68% 29.96 0.0
01 21:15 Calm 10.00 Fair CLR 55 41.9 61% 29.95 0.0
Date Time (edt) Wind (mph) Vis. (mi.) Weather Sky Cond. Air Dwpt Max. Min. Relative Humidity Wind Chill (°F) Heat Index (°F) altimeter (in) sea level (mb) 1 hr 3 hr 6 hr
6 hour
Temperature (ºF) Pressure Precipitation (in)